Sainte-Anne-Du-Lac, Canada
Current Conditions -  °F | °C
As of 2:00 PM on Tuesday 21 Oct 2014 (Local Time) from CYND Reporting Station
Overcast Overcast  
Wind Chill: 40°   Ceiling: 3000
Heat Index: 45°   Visibility: 15mi
Dew Point: 39°   Wind: 9mph
Humidity: 81%   Direction: 30°NNE
Pressure: 30.03"   Gusts: 17mph
Location:  46.87°N, 75.32°W
Report Text: CYND 211800Z 03008G15KT 15SM FEW009 OVC030 07/04 A3003 RMK SF1SC7 SLP172
Loading
Personal Weather Stations






























Interactive Weather Map
Tropical Storm Tracking
New forecast layout! Learn more

10-Day Weather Forecast

Advertisements
Track Severe Weather on mobile